sensor_id;sensor_type;location;lat;lon;timestamp;P1;durP1;ratioP1;P2;durP2;ratioP2
56455;SDS011;42354;53.218;6.564;2023-07-09T00:01:53;13.05;;;9.15;;
56455;SDS011;42354;53.218;6.564;2023-07-09T00:04:19;12.77;;;9.00;;
56455;SDS011;42354;53.218;6.564;2023-07-09T00:06:45;13.10;;;8.68;;
56455;SDS011;42354;53.218;6.564;2023-07-09T00:09:14;14.77;;;8.23;;
56455;SDS011;42354;53.218;6.564;2023-07-09T00:11:43;13.02;;;8.32;;
56455;SDS011;42354;53.218;6.564;2023-07-09T00:14:10;13.43;;;8.00;;
56455;SDS011;42354;53.218;6.564;2023-07-09T00:16:37;11.32;;;7.43;;
56455;SDS011;42354;53.218;6.564;2023-07-09T00:19:04;14.90;;;9.50;;
56455;SDS011;42354;53.218;6.564;2023-07-09T00:21:30;11.65;;;8.82;;
56455;SDS011;42354;53.218;6.564;2023-07-09T00:23:59;11.15;;;8.90;;
56455;SDS011;42354;53.218;6.564;2023-07-09T00:26:30;14.45;;;9.25;;
56455;SDS011;42354;53.218;6.564;2023-07-09T00:28:57;11.38;;;8.98;;
56455;SDS011;42354;53.218;6.564;2023-07-09T00:31:24;12.60;;;8.15;;
56455;SDS011;42354;53.218;6.564;2023-07-09T00:33:50;20.13;;;8.90;;
56455;SDS011;42354;53.218;6.564;2023-07-09T00:36:18;14.38;;;9.40;;
56455;SDS011;42354;53.218;6.564;2023-07-09T00:38:50;13.68;;;8.15;;
56455;SDS011;42354;53.218;6.564;2023-07-09T00:41:20;11.23;;;8.70;;
56455;SDS011;42354;53.218;6.564;2023-07-09T00:43:49;16.85;;;8.77;;
56455;SDS011;42354;53.218;6.564;2023-07-09T00:49:04;19.10;;;10.27;;
56455;SDS011;42354;53.218;6.564;2023-07-09T00:51:36;14.23;;;11.10;;
56455;SDS011;42354;53.218;6.564;2023-07-09T00:54:11;15.75;;;10.65;;
56455;SDS011;42354;53.218;6.564;2023-07-09T00:56:46;15.63;;;10.00;;
56455;SDS011;42354;53.218;6.564;2023-07-09T00:59:16;15.65;;;10.07;;
56455;SDS011;42354;53.218;6.564;2023-07-09T01:01:45;15.20;;;9.18;;
56455;SDS011;42354;53.218;6.564;2023-07-09T01:04:15;15.15;;;9.52;;
56455;SDS011;42354;53.218;6.564;2023-07-09T01:06:46;13.85;;;9.77;;
56455;SDS011;42354;53.218;6.564;2023-07-09T01:09:16;14.40;;;9.40;;
56455;SDS011;42354;53.218;6.564;2023-07-09T01:11:42;15.30;;;9.02;;
56455;SDS011;42354;53.218;6.564;2023-07-09T01:14:08;14.40;;;9.60;;
56455;SDS011;42354;53.218;6.564;2023-07-09T01:16:37;13.38;;;9.30;;
56455;SDS011;42354;53.218;6.564;2023-07-09T01:19:04;12.05;;;8.70;;
56455;SDS011;42354;53.218;6.564;2023-07-09T01:21:31;21.15;;;8.68;;
56455;SDS011;42354;53.218;6.564;2023-07-09T01:23:57;12.80;;;8.48;;
56455;SDS011;42354;53.218;6.564;2023-07-09T01:26:24;23.13;;;9.25;;
56455;SDS011;42354;53.218;6.564;2023-07-09T01:28:52;13.20;;;8.93;;
56455;SDS011;42354;53.218;6.564;2023-07-09T01:31:19;14.32;;;8.95;;
56455;SDS011;42354;53.218;6.564;2023-07-09T01:33:48;11.80;;;9.15;;
56455;SDS011;42354;53.218;6.564;2023-07-09T01:36:15;11.23;;;8.43;;
56455;SDS011;42354;53.218;6.564;2023-07-09T01:38:42;15.88;;;8.68;;
56455;SDS011;42354;53.218;6.564;2023-07-09T01:41:08;14.15;;;8.63;;
56455;SDS011;42354;53.218;6.564;2023-07-09T01:43:38;19.80;;;10.20;;
56455;SDS011;42354;53.218;6.564;2023-07-09T01:46:04;13.48;;;9.13;;
56455;SDS011;42354;53.218;6.564;2023-07-09T01:48:29;13.15;;;9.50;;
56455;SDS011;42354;53.218;6.564;2023-07-09T01:50:54;13.10;;;9.20;;
56455;SDS011;42354;53.218;6.564;2023-07-09T01:53:21;16.08;;;9.95;;
56455;SDS011;42354;53.218;6.564;2023-07-09T01:55:50;13.68;;;9.38;;
56455;SDS011;42354;53.218;6.564;2023-07-09T01:58:16;14.88;;;9.48;;
56455;SDS011;42354;53.218;6.564;2023-07-09T02:00:42;18.70;;;10.05;;
56455;SDS011;42354;53.218;6.564;2023-07-09T02:03:09;15.57;;;9.32;;
56455;SDS011;42354;53.218;6.564;2023-07-09T02:05:36;14.57;;;9.25;;
56455;SDS011;42354;53.218;6.564;2023-07-09T02:08:02;12.88;;;9.07;;
56455;SDS011;42354;53.218;6.564;2023-07-09T02:10:28;11.57;;;9.10;;
56455;SDS011;42354;53.218;6.564;2023-07-09T02:12:53;18.90;;;10.10;;
56455;SDS011;42354;53.218;6.564;2023-07-09T02:15:19;16.27;;;9.30;;
56455;SDS011;42354;53.218;6.564;2023-07-09T02:17:45;18.10;;;8.68;;
56455;SDS011;42354;53.218;6.564;2023-07-09T02:20:12;12.95;;;9.48;;
56455;SDS011;42354;53.218;6.564;2023-07-09T02:22:39;14.05;;;9.20;;
56455;SDS011;42354;53.218;6.564;2023-07-09T02:25:06;14.15;;;9.00;;
56455;SDS011;42354;53.218;6.564;2023-07-09T02:27:32;14.00;;;9.02;;
56455;SDS011;42354;53.218;6.564;2023-07-09T02:29:58;18.75;;;9.80;;
56455;SDS011;42354;53.218;6.564;2023-07-09T02:32:26;17.30;;;9.15;;
56455;SDS011;42354;53.218;6.564;2023-07-09T02:34:52;14.63;;;9.30;;
56455;SDS011;42354;53.218;6.564;2023-07-09T02:37:28;12.23;;;8.98;;
56455;SDS011;42354;53.218;6.564;2023-07-09T02:39:53;12.10;;;9.38;;
56455;SDS011;42354;53.218;6.564;2023-07-09T02:42:19;13.65;;;9.57;;
56455;SDS011;42354;53.218;6.564;2023-07-09T02:44:46;13.07;;;10.07;;
56455;SDS011;42354;53.218;6.564;2023-07-09T02:47:11;13.40;;;9.32;;
56455;SDS011;42354;53.218;6.564;2023-07-09T02:49:37;13.85;;;8.80;;
56455;SDS011;42354;53.218;6.564;2023-07-09T02:52:03;15.30;;;9.40;;
56455;SDS011;42354;53.218;6.564;2023-07-09T02:54:29;13.30;;;9.25;;
56455;SDS011;42354;53.218;6.564;2023-07-09T02:56:54;14.85;;;9.07;;
56455;SDS011;42354;53.218;6.564;2023-07-09T02:59:19;11.50;;;9.32;;
56455;SDS011;42354;53.218;6.564;2023-07-09T03:01:45;15.05;;;10.00;;
56455;SDS011;42354;53.218;6.564;2023-07-09T03:04:12;13.60;;;9.73;;
56455;SDS011;42354;53.218;6.564;2023-07-09T03:06:38;15.65;;;9.98;;
56455;SDS011;42354;53.218;6.564;2023-07-09T03:09:05;15.70;;;10.32;;
56455;SDS011;42354;53.218;6.564;2023-07-09T03:11:32;14.48;;;9.90;;
56455;SDS011;42354;53.218;6.564;2023-07-09T03:13:59;15.25;;;10.63;;
56455;SDS011;42354;53.218;6.564;2023-07-09T03:16:26;14.13;;;10.10;;
56455;SDS011;42354;53.218;6.564;2023-07-09T03:18:55;15.70;;;9.75;;
56455;SDS011;42354;53.218;6.564;2023-07-09T03:21:22;15.27;;;9.45;;
56455;SDS011;42354;53.218;6.564;2023-07-09T03:23:49;19.92;;;9.65;;
56455;SDS011;42354;53.218;6.564;2023-07-09T03:26:14;15.15;;;9.77;;
56455;SDS011;42354;53.218;6.564;2023-07-09T03:28:40;18.20;;;9.70;;
56455;SDS011;42354;53.218;6.564;2023-07-09T03:31:05;15.13;;;9.63;;
56455;SDS011;42354;53.218;6.564;2023-07-09T03:33:30;17.35;;;9.43;;
56455;SDS011;42354;53.218;6.564;2023-07-09T03:35:56;15.65;;;9.60;;
56455;SDS011;42354;53.218;6.564;2023-07-09T03:38:21;11.45;;;9.20;;
56455;SDS011;42354;53.218;6.564;2023-07-09T03:40:51;17.50;;;9.38;;
56455;SDS011;42354;53.218;6.564;2023-07-09T03:43:20;13.35;;;9.60;;
56455;SDS011;42354;53.218;6.564;2023-07-09T03:45:46;11.75;;;9.30;;
56455;SDS011;42354;53.218;6.564;2023-07-09T03:48:13;14.27;;;9.57;;
56455;SDS011;42354;53.218;6.564;2023-07-09T03:50:39;15.05;;;9.55;;
56455;SDS011;42354;53.218;6.564;2023-07-09T03:53:04;11.80;;;9.02;;
56455;SDS011;42354;53.218;6.564;2023-07-09T03:55:33;12.38;;;9.52;;
56455;SDS011;42354;53.218;6.564;2023-07-09T03:57:58;15.77;;;9.65;;
56455;SDS011;42354;53.218;6.564;2023-07-09T04:00:24;12.88;;;9.45;;
56455;SDS011;42354;53.218;6.564;2023-07-09T04:02:52;12.50;;;8.98;;
56455;SDS011;42354;53.218;6.564;2023-07-09T04:05:18;15.50;;;9.52;;
56455;SDS011;42354;53.218;6.564;2023-07-09T04:07:44;14.43;;;9.02;;
56455;SDS011;42354;53.218;6.564;2023-07-09T04:10:11;11.90;;;9.48;;
56455;SDS011;42354;53.218;6.564;2023-07-09T04:12:36;13.90;;;9.65;;
56455;SDS011;42354;53.218;6.564;2023-07-09T04:15:03;12.57;;;8.48;;
56455;SDS011;42354;53.218;6.564;2023-07-09T04:17:29;14.40;;;9.13;;
56455;SDS011;42354;53.218;6.564;2023-07-09T04:19:55;13.60;;;9.45;;
56455;SDS011;42354;53.218;6.564;2023-07-09T04:22:20;14.80;;;9.25;;
56455;SDS011;42354;53.218;6.564;2023-07-09T04:24:46;14.90;;;9.00;;
56455;SDS011;42354;53.218;6.564;2023-07-09T04:27:11;14.45;;;9.40;;
56455;SDS011;42354;53.218;6.564;2023-07-09T04:29:39;16.02;;;8.85;;
56455;SDS011;42354;53.218;6.564;2023-07-09T04:32:06;11.63;;;9.07;;
56455;SDS011;42354;53.218;6.564;2023-07-09T04:34:40;13.98;;;9.45;;
56455;SDS011;42354;53.218;6.564;2023-07-09T04:37:06;12.45;;;9.27;;
56455;SDS011;42354;53.218;6.564;2023-07-09T04:39:33;13.40;;;9.48;;
56455;SDS011;42354;53.218;6.564;2023-07-09T04:41:59;12.13;;;9.13;;
56455;SDS011;42354;53.218;6.564;2023-07-09T04:44:24;11.75;;;9.15;;
56455;SDS011;42354;53.218;6.564;2023-07-09T04:46:50;15.43;;;10.43;;
56455;SDS011;42354;53.218;6.564;2023-07-09T04:49:16;12.60;;;9.45;;
56455;SDS011;42354;53.218;6.564;2023-07-09T04:51:41;12.35;;;9.20;;
56455;SDS011;42354;53.218;6.564;2023-07-09T04:54:06;15.60;;;10.20;;
56455;SDS011;42354;53.218;6.564;2023-07-09T04:56:32;16.92;;;9.55;;
56455;SDS011;42354;53.218;6.564;2023-07-09T04:58:57;16.02;;;9.27;;
56455;SDS011;42354;53.218;6.564;2023-07-09T05:01:23;15.20;;;9.63;;
56455;SDS011;42354;53.218;6.564;2023-07-09T05:03:48;15.38;;;9.52;;
56455;SDS011;42354;53.218;6.564;2023-07-09T05:06:14;15.32;;;9.02;;
56455;SDS011;42354;53.218;6.564;2023-07-09T05:08:40;12.82;;;9.65;;
56455;SDS011;42354;53.218;6.564;2023-07-09T05:11:07;12.05;;;8.88;;
56455;SDS011;42354;53.218;6.564;2023-07-09T05:13:35;16.75;;;9.75;;
56455;SDS011;42354;53.218;6.564;2023-07-09T05:16:01;21.15;;;9.40;;
56455;SDS011;42354;53.218;6.564;2023-07-09T05:18:26;12.50;;;8.70;;
56455;SDS011;42354;53.218;6.564;2023-07-09T05:20:52;14.13;;;9.50;;
56455;SDS011;42354;53.218;6.564;2023-07-09T05:23:17;10.55;;;8.77;;
56455;SDS011;42354;53.218;6.564;2023-07-09T05:25:42;12.00;;;8.75;;
56455;SDS011;42354;53.218;6.564;2023-07-09T05:28:08;11.43;;;8.73;;
56455;SDS011;42354;53.218;6.564;2023-07-09T05:30:34;10.77;;;8.10;;
56455;SDS011;42354;53.218;6.564;2023-07-09T05:32:59;11.60;;;8.80;;
56455;SDS011;42354;53.218;6.564;2023-07-09T05:35:25;11.65;;;8.95;;
56455;SDS011;42354;53.218;6.564;2023-07-09T05:37:54;11.85;;;8.23;;
56455;SDS011;42354;53.218;6.564;2023-07-09T05:40:20;12.27;;;8.13;;
56455;SDS011;42354;53.218;6.564;2023-07-09T05:42:47;16.33;;;8.60;;
56455;SDS011;42354;53.218;6.564;2023-07-09T05:45:15;13.90;;;8.55;;
56455;SDS011;42354;53.218;6.564;2023-07-09T05:47:41;10.20;;;7.65;;
56455;SDS011;42354;53.218;6.564;2023-07-09T05:50:06;9.40;;;8.00;;
56455;SDS011;42354;53.218;6.564;2023-07-09T05:52:32;12.85;;;8.15;;
56455;SDS011;42354;53.218;6.564;2023-07-09T05:54:58;11.50;;;8.13;;
56455;SDS011;42354;53.218;6.564;2023-07-09T05:57:24;10.27;;;7.88;;
56455;SDS011;42354;53.218;6.564;2023-07-09T05:59:50;14.52;;;8.30;;
56455;SDS011;42354;53.218;6.564;2023-07-09T06:02:17;14.63;;;8.60;;
56455;SDS011;42354;53.218;6.564;2023-07-09T06:04:44;13.30;;;8.25;;
56455;SDS011;42354;53.218;6.564;2023-07-09T06:07:10;12.45;;;8.32;;
56455;SDS011;42354;53.218;6.564;2023-07-09T06:09:37;12.00;;;8.68;;
56455;SDS011;42354;53.218;6.564;2023-07-09T06:12:03;13.82;;;8.68;;
56455;SDS011;42354;53.218;6.564;2023-07-09T06:14:29;13.45;;;9.27;;
56455;SDS011;42354;53.218;6.564;2023-07-09T06:16:56;11.50;;;8.98;;
56455;SDS011;42354;53.218;6.564;2023-07-09T06:19:22;10.82;;;8.18;;
56455;SDS011;42354;53.218;6.564;2023-07-09T06:21:47;14.35;;;8.70;;
56455;SDS011;42354;53.218;6.564;2023-07-09T06:24:13;14.35;;;9.02;;
56455;SDS011;42354;53.218;6.564;2023-07-09T06:26:38;15.75;;;8.45;;
56455;SDS011;42354;53.218;6.564;2023-07-09T06:29:03;13.80;;;8.60;;
56455;SDS011;42354;53.218;6.564;2023-07-09T06:31:29;12.93;;;8.30;;
56455;SDS011;42354;53.218;6.564;2023-07-09T06:33:54;13.00;;;8.50;;
56455;SDS011;42354;53.218;6.564;2023-07-09T06:36:20;15.38;;;9.25;;
56455;SDS011;42354;53.218;6.564;2023-07-09T06:38:45;16.55;;;8.95;;
56455;SDS011;42354;53.218;6.564;2023-07-09T06:41:11;11.35;;;8.45;;
56455;SDS011;42354;53.218;6.564;2023-07-09T06:43:37;11.13;;;8.30;;
56455;SDS011;42354;53.218;6.564;2023-07-09T06:46:04;12.80;;;8.32;;
56455;SDS011;42354;53.218;6.564;2023-07-09T06:48:30;10.90;;;8.45;;
56455;SDS011;42354;53.218;6.564;2023-07-09T06:50:56;11.85;;;8.73;;
56455;SDS011;42354;53.218;6.564;2023-07-09T06:53:23;11.43;;;8.27;;
56455;SDS011;42354;53.218;6.564;2023-07-09T06:55:50;14.90;;;8.77;;
56455;SDS011;42354;53.218;6.564;2023-07-09T06:58:18;11.60;;;8.43;;
56455;SDS011;42354;53.218;6.564;2023-07-09T07:00:44;10.27;;;8.32;;
56455;SDS011;42354;53.218;6.564;2023-07-09T07:03:10;12.82;;;8.30;;
56455;SDS011;42354;53.218;6.564;2023-07-09T07:05:36;11.40;;;8.77;;
56455;SDS011;42354;53.218;6.564;2023-07-09T07:08:02;12.32;;;8.32;;
56455;SDS011;42354;53.218;6.564;2023-07-09T07:10:29;14.63;;;8.25;;
56455;SDS011;42354;53.218;6.564;2023-07-09T07:12:55;13.05;;;8.70;;
56455;SDS011;42354;53.218;6.564;2023-07-09T07:15:21;10.57;;;7.78;;
56455;SDS011;42354;53.218;6.564;2023-07-09T07:17:47;14.40;;;8.20;;
56455;SDS011;42354;53.218;6.564;2023-07-09T07:20:13;12.68;;;7.68;;
56455;SDS011;42354;53.218;6.564;2023-07-09T07:22:39;12.38;;;8.10;;
56455;SDS011;42354;53.218;6.564;2023-07-09T07:25:05;11.57;;;8.10;;
56455;SDS011;42354;53.218;6.564;2023-07-09T07:27:31;11.02;;;8.98;;
56455;SDS011;42354;53.218;6.564;2023-07-09T07:29:57;12.63;;;8.13;;
56455;SDS011;42354;53.218;6.564;2023-07-09T07:32:23;11.43;;;8.05;;
56455;SDS011;42354;53.218;6.564;2023-07-09T07:34:48;9.68;;;7.47;;
56455;SDS011;42354;53.218;6.564;2023-07-09T07:37:14;10.93;;;7.53;;
56455;SDS011;42354;53.218;6.564;2023-07-09T07:39:39;15.02;;;8.73;;
56455;SDS011;42354;53.218;6.564;2023-07-09T07:42:05;15.70;;;8.73;;
56455;SDS011;42354;53.218;6.564;2023-07-09T07:44:32;14.57;;;8.43;;
56455;SDS011;42354;53.218;6.564;2023-07-09T07:46:57;14.32;;;8.10;;
56455;SDS011;42354;53.218;6.564;2023-07-09T07:49:22;12.70;;;7.70;;
56455;SDS011;42354;53.218;6.564;2023-07-09T07:51:49;13.73;;;8.35;;
56455;SDS011;42354;53.218;6.564;2023-07-09T07:54:14;10.85;;;8.27;;
56455;SDS011;42354;53.218;6.564;2023-07-09T07:56:40;12.45;;;7.93;;
56455;SDS011;42354;53.218;6.564;2023-07-09T07:59:06;11.43;;;8.07;;
56455;SDS011;42354;53.218;6.564;2023-07-09T08:01:31;10.90;;;7.78;;
56455;SDS011;42354;53.218;6.564;2023-07-09T08:03:59;15.18;;;9.07;;
56455;SDS011;42354;53.218;6.564;2023-07-09T08:06:24;15.35;;;8.15;;
56455;SDS011;42354;53.218;6.564;2023-07-09T08:08:50;10.60;;;8.35;;
56455;SDS011;42354;53.218;6.564;2023-07-09T08:11:15;13.82;;;8.68;;
56455;SDS011;42354;53.218;6.564;2023-07-09T08:13:40;13.18;;;8.32;;
56455;SDS011;42354;53.218;6.564;2023-07-09T08:16:06;12.00;;;8.68;;
56455;SDS011;42354;53.218;6.564;2023-07-09T08:18:32;13.20;;;9.00;;
56455;SDS011;42354;53.218;6.564;2023-07-09T08:20:59;11.63;;;9.55;;
56455;SDS011;42354;53.218;6.564;2023-07-09T08:23:25;11.50;;;8.82;;
56455;SDS011;42354;53.218;6.564;2023-07-09T08:25:57;11.50;;;8.38;;
56455;SDS011;42354;53.218;6.564;2023-07-09T08:28:23;11.55;;;8.52;;
56455;SDS011;42354;53.218;6.564;2023-07-09T08:30:51;14.55;;;8.45;;
56455;SDS011;42354;53.218;6.564;2023-07-09T08:33:18;16.33;;;8.23;;
56455;SDS011;42354;53.218;6.564;2023-07-09T08:35:43;13.02;;;8.52;;
56455;SDS011;42354;53.218;6.564;2023-07-09T08:38:09;12.75;;;9.73;;
56455;SDS011;42354;53.218;6.564;2023-07-09T08:40:38;12.00;;;8.45;;
56455;SDS011;42354;53.218;6.564;2023-07-09T08:46:02;13.18;;;8.30;;
56455;SDS011;42354;53.218;6.564;2023-07-09T08:48:36;13.27;;;8.73;;
56455;SDS011;42354;53.218;6.564;2023-07-09T08:51:27;18.15;;;8.75;;
56455;SDS011;42354;53.218;6.564;2023-07-09T08:54:00;23.13;;;10.25;;
56455;SDS011;42354;53.218;6.564;2023-07-09T08:56:26;18.58;;;12.52;;
56455;SDS011;42354;53.218;6.564;2023-07-09T08:58:55;15.27;;;12.10;;
56455;SDS011;42354;53.218;6.564;2023-07-09T09:01:28;17.73;;;10.40;;
56455;SDS011;42354;53.218;6.564;2023-07-09T09:04:03;16.73;;;10.68;;
56455;SDS011;42354;53.218;6.564;2023-07-09T09:06:45;15.35;;;9.95;;
56455;SDS011;42354;53.218;6.564;2023-07-09T09:14:42;16.88;;;11.23;;
56455;SDS011;42354;53.218;6.564;2023-07-09T09:17:12;16.88;;;11.95;;
56455;SDS011;42354;53.218;6.564;2023-07-09T09:19:46;19.08;;;13.75;;
56455;SDS011;42354;53.218;6.564;2023-07-09T09:22:19;14.82;;;12.88;;
56455;SDS011;42354;53.218;6.564;2023-07-09T09:28:02;15.25;;;11.93;;
56455;SDS011;42354;53.218;6.564;2023-07-09T09:30:28;18.10;;;12.95;;
56455;SDS011;42354;53.218;6.564;2023-07-09T09:35:25;17.50;;;14.50;;
56455;SDS011;42354;53.218;6.564;2023-07-09T09:38:02;20.52;;;14.48;;
56455;SDS011;42354;53.218;6.564;2023-07-09T09:40:34;17.17;;;13.88;;
56455;SDS011;42354;53.218;6.564;2023-07-09T09:43:01;21.08;;;14.95;;
56455;SDS011;42354;53.218;6.564;2023-07-09T09:45:34;21.23;;;13.85;;
56455;SDS011;42354;53.218;6.564;2023-07-09T09:48:13;24.30;;;15.07;;
56455;SDS011;42354;53.218;6.564;2023-07-09T09:50:44;18.02;;;14.63;;
56455;SDS011;42354;53.218;6.564;2023-07-09T09:53:12;20.58;;;13.88;;
56455;SDS011;42354;53.218;6.564;2023-07-09T09:55:44;18.02;;;12.80;;
56455;SDS011;42354;53.218;6.564;2023-07-09T09:58:11;20.77;;;15.13;;
56455;SDS011;42354;53.218;6.564;2023-07-09T10:00:39;19.85;;;15.90;;
56455;SDS011;42354;53.218;6.564;2023-07-09T10:03:05;21.98;;;14.02;;
56455;SDS011;42354;53.218;6.564;2023-07-09T10:05:38;18.98;;;14.57;;
56455;SDS011;42354;53.218;6.564;2023-07-09T10:08:12;22.20;;;15.25;;
56455;SDS011;42354;53.218;6.564;2023-07-09T10:10:45;18.40;;;13.70;;
56455;SDS011;42354;53.218;6.564;2023-07-09T10:15:59;20.90;;;13.82;;
56455;SDS011;42354;53.218;6.564;2023-07-09T10:21:39;17.83;;;12.15;;
56455;SDS011;42354;53.218;6.564;2023-07-09T10:35:27;19.70;;;13.10;;
56455;SDS011;42354;53.218;6.564;2023-07-09T10:43:04;19.98;;;12.48;;
56455;SDS011;42354;53.218;6.564;2023-07-09T10:45:47;16.60;;;12.68;;
56455;SDS011;42354;53.218;6.564;2023-07-09T10:48:17;18.27;;;13.30;;
56455;SDS011;42354;53.218;6.564;2023-07-09T10:50:53;16.02;;;11.10;;
56455;SDS011;42354;53.218;6.564;2023-07-09T10:56:10;16.40;;;11.75;;
56455;SDS011;42354;53.218;6.564;2023-07-09T11:01:28;16.40;;;11.32;;
56455;SDS011;42354;53.218;6.564;2023-07-09T11:03:59;13.95;;;11.80;;
56455;SDS011;42354;53.218;6.564;2023-07-09T11:06:45;14.43;;;10.60;;
56455;SDS011;42354;53.218;6.564;2023-07-09T11:09:24;19.05;;;11.65;;
56455;SDS011;42354;53.218;6.564;2023-07-09T11:11:55;14.07;;;10.75;;
56455;SDS011;42354;53.218;6.564;2023-07-09T11:14:37;16.90;;;11.10;;
56455;SDS011;42354;53.218;6.564;2023-07-09T11:17:12;14.70;;;10.05;;
56455;SDS011;42354;53.218;6.564;2023-07-09T11:19:41;11.88;;;9.45;;
56455;SDS011;42354;53.218;6.564;2023-07-09T11:22:54;13.80;;;10.50;;
56455;SDS011;42354;53.218;6.564;2023-07-09T11:25:07;14.88;;;11.43;;
56455;SDS011;42354;53.218;6.564;2023-07-09T11:27:33;14.10;;;9.15;;
56455;SDS011;42354;53.218;6.564;2023-07-09T11:33:32;13.40;;;9.40;;
56455;SDS011;42354;53.218;6.564;2023-07-09T11:36:13;13.73;;;9.82;;
56455;SDS011;42354;53.218;6.564;2023-07-09T11:38:48;14.50;;;9.57;;
56455;SDS011;42354;53.218;6.564;2023-07-09T11:44:09;12.75;;;8.80;;
56455;SDS011;42354;53.218;6.564;2023-07-09T11:46:40;13.07;;;10.15;;
56455;SDS011;42354;53.218;6.564;2023-07-09T11:49:19;14.00;;;9.17;;
56455;SDS011;42354;53.218;6.564;2023-07-09T11:51:50;12.73;;;10.27;;
56455;SDS011;42354;53.218;6.564;2023-07-09T11:54:22;14.40;;;9.52;;
56455;SDS011;42354;53.218;6.564;2023-07-09T11:56:58;13.82;;;10.20;;
56455;SDS011;42354;53.218;6.564;2023-07-09T11:59:25;16.10;;;10.65;;
56455;SDS011;42354;53.218;6.564;2023-07-09T12:01:51;14.75;;;9.68;;
56455;SDS011;42354;53.218;6.564;2023-07-09T12:04:19;14.93;;;10.35;;
56455;SDS011;42354;53.218;6.564;2023-07-09T12:06:59;14.23;;;10.93;;
56455;SDS011;42354;53.218;6.564;2023-07-09T12:09:30;13.25;;;9.20;;
56455;SDS011;42354;53.218;6.564;2023-07-09T12:11:59;18.17;;;10.10;;
56455;SDS011;42354;53.218;6.564;2023-07-09T12:14:24;13.02;;;10.13;;
56455;SDS011;42354;53.218;6.564;2023-07-09T12:16:52;15.55;;;9.25;;
56455;SDS011;42354;53.218;6.564;2023-07-09T12:19:19;16.48;;;8.07;;
56455;SDS011;42354;53.218;6.564;2023-07-09T12:21:48;11.93;;;9.13;;
56455;SDS011;42354;53.218;6.564;2023-07-09T12:24:24;12.13;;;7.85;;
56455;SDS011;42354;53.218;6.564;2023-07-09T12:26:51;12.23;;;9.05;;
56455;SDS011;42354;53.218;6.564;2023-07-09T12:29:18;11.45;;;7.93;;
56455;SDS011;42354;53.218;6.564;2023-07-09T12:31:44;15.05;;;7.90;;
56455;SDS011;42354;53.218;6.564;2023-07-09T12:34:10;12.18;;;8.30;;
56455;SDS011;42354;53.218;6.564;2023-07-09T12:36:39;13.27;;;8.98;;
56455;SDS011;42354;53.218;6.564;2023-07-09T12:39:08;11.45;;;8.15;;
56455;SDS011;42354;53.218;6.564;2023-07-09T12:41:38;12.80;;;8.02;;
56455;SDS011;42354;53.218;6.564;2023-07-09T12:44:06;10.40;;;7.50;;
56455;SDS011;42354;53.218;6.564;2023-07-09T12:46:40;15.70;;;7.38;;
56455;SDS011;42354;53.218;6.564;2023-07-09T12:49:06;13.07;;;7.38;;
56455;SDS011;42354;53.218;6.564;2023-07-09T12:51:31;15.82;;;8.38;;
56455;SDS011;42354;53.218;6.564;2023-07-09T12:54:01;11.20;;;7.50;;
56455;SDS011;42354;53.218;6.564;2023-07-09T12:56:29;11.23;;;8.25;;
56455;SDS011;42354;53.218;6.564;2023-07-09T12:58:56;10.32;;;7.93;;
56455;SDS011;42354;53.218;6.564;2023-07-09T13:01:22;10.10;;;8.60;;
56455;SDS011;42354;53.218;6.564;2023-07-09T13:03:54;10.80;;;8.05;;
56455;SDS011;42354;53.218;6.564;2023-07-09T13:06:34;10.05;;;7.18;;
56455;SDS011;42354;53.218;6.564;2023-07-09T13:09:01;13.27;;;8.68;;
56455;SDS011;42354;53.218;6.564;2023-07-09T13:11:36;9.57;;;7.57;;
56455;SDS011;42354;53.218;6.564;2023-07-09T13:14:03;10.85;;;8.23;;
56455;SDS011;42354;53.218;6.564;2023-07-09T13:16:30;11.85;;;8.55;;
56455;SDS011;42354;53.218;6.564;2023-07-09T13:18:55;10.60;;;7.55;;
56455;SDS011;42354;53.218;6.564;2023-07-09T13:21:21;11.93;;;8.77;;
56455;SDS011;42354;53.218;6.564;2023-07-09T13:23:48;11.73;;;8.38;;
56455;SDS011;42354;53.218;6.564;2023-07-09T13:26:14;11.85;;;8.55;;
56455;SDS011;42354;53.218;6.564;2023-07-09T13:28:41;13.43;;;8.70;;
56455;SDS011;42354;53.218;6.564;2023-07-09T13:33:33;13.48;;;8.73;;
56455;SDS011;42354;53.218;6.564;2023-07-09T13:35:59;12.48;;;8.90;;
56455;SDS011;42354;53.218;6.564;2023-07-09T13:38:24;12.73;;;8.73;;
56455;SDS011;42354;53.218;6.564;2023-07-09T13:40:54;14.05;;;8.88;;
56455;SDS011;42354;53.218;6.564;2023-07-09T13:43:33;15.07;;;8.48;;
56455;SDS011;42354;53.218;6.564;2023-07-09T13:46:01;10.60;;;8.32;;
56455;SDS011;42354;53.218;6.564;2023-07-09T13:48:31;12.02;;;8.15;;
56455;SDS011;42354;53.218;6.564;2023-07-09T13:50:57;12.88;;;8.70;;
56455;SDS011;42354;53.218;6.564;2023-07-09T13:53:25;11.63;;;8.10;;
56455;SDS011;42354;53.218;6.564;2023-07-09T13:55:54;10.02;;;8.48;;
56455;SDS011;42354;53.218;6.564;2023-07-09T13:58:20;13.25;;;8.32;;
56455;SDS011;42354;53.218;6.564;2023-07-09T14:00:47;9.95;;;7.95;;
56455;SDS011;42354;53.218;6.564;2023-07-09T14:03:19;14.68;;;8.20;;
56455;SDS011;42354;53.218;6.564;2023-07-09T14:05:47;10.00;;;7.68;;
56455;SDS011;42354;53.218;6.564;2023-07-09T14:08:13;12.20;;;8.20;;
56455;SDS011;42354;53.218;6.564;2023-07-09T14:10:39;15.98;;;8.60;;
56455;SDS011;42354;53.218;6.564;2023-07-09T14:13:05;13.05;;;8.10;;
56455;SDS011;42354;53.218;6.564;2023-07-09T14:15:40;11.73;;;7.90;;
56455;SDS011;42354;53.218;6.564;2023-07-09T14:18:16;14.25;;;8.57;;
56455;SDS011;42354;53.218;6.564;2023-07-09T14:20:43;13.75;;;8.35;;
56455;SDS011;42354;53.218;6.564;2023-07-09T14:23:12;11.13;;;8.45;;
56455;SDS011;42354;53.218;6.564;2023-07-09T14:25:39;12.60;;;8.70;;
56455;SDS011;42354;53.218;6.564;2023-07-09T14:28:16;12.90;;;7.90;;
56455;SDS011;42354;53.218;6.564;2023-07-09T14:30:44;12.93;;;8.68;;
56455;SDS011;42354;53.218;6.564;2023-07-09T14:33:12;14.52;;;8.15;;
56455;SDS011;42354;53.218;6.564;2023-07-09T14:35:45;10.35;;;8.23;;
56455;SDS011;42354;53.218;6.564;2023-07-09T14:38:32;10.93;;;8.45;;
56455;SDS011;42354;53.218;6.564;2023-07-09T14:40:58;9.82;;;7.78;;
56455;SDS011;42354;53.218;6.564;2023-07-09T14:43:30;11.75;;;8.13;;
56455;SDS011;42354;53.218;6.564;2023-07-09T14:45:57;12.40;;;8.85;;
56455;SDS011;42354;53.218;6.564;2023-07-09T14:48:24;14.43;;;8.75;;
56455;SDS011;42354;53.218;6.564;2023-07-09T14:50:49;9.63;;;7.40;;
56455;SDS011;42354;53.218;6.564;2023-07-09T14:53:24;15.77;;;8.65;;
56455;SDS011;42354;53.218;6.564;2023-07-09T14:55:51;14.68;;;8.20;;
56455;SDS011;42354;53.218;6.564;2023-07-09T14:58:18;15.48;;;8.63;;
56455;SDS011;42354;53.218;6.564;2023-07-09T15:00:45;10.60;;;8.25;;
56455;SDS011;42354;53.218;6.564;2023-07-09T15:03:22;13.68;;;8.05;;
56455;SDS011;42354;53.218;6.564;2023-07-09T15:05:50;13.65;;;9.07;;
56455;SDS011;42354;53.218;6.564;2023-07-09T15:08:18;13.52;;;8.90;;
56455;SDS011;42354;53.218;6.564;2023-07-09T15:10:47;13.10;;;8.63;;
56455;SDS011;42354;53.218;6.564;2023-07-09T15:13:18;17.70;;;10.32;;
56455;SDS011;42354;53.218;6.564;2023-07-09T15:15:50;17.80;;;12.57;;
56455;SDS011;42354;53.218;6.564;2023-07-09T15:18:15;22.40;;;11.68;;
56455;SDS011;42354;53.218;6.564;2023-07-09T15:20:49;18.40;;;13.30;;
56455;SDS011;42354;53.218;6.564;2023-07-09T15:23:20;17.58;;;13.65;;
56455;SDS011;42354;53.218;6.564;2023-07-09T15:25:50;24.10;;;13.95;;
56455;SDS011;42354;53.218;6.564;2023-07-09T15:28:15;19.38;;;12.77;;
56455;SDS011;42354;53.218;6.564;2023-07-09T15:30:41;18.17;;;12.52;;